Time;durP1;ratioP1;P1;durP2;ratioP2;P2;SDS_P1;SDS_P2;PMS_P1;PMS_P2;Temp;Humidity;BMP_temperature;BMP_pressure;BME280_temperature;BME280_humidity;BME280_pressure;Samples;Min_cycle;Max_cycle;Signal;HPM_P1;HPM_P2
2023/08/22 00:04:37;;;;;;;15.35;13.57;;;;;;;14.16;100.00;101808.34;10485905;28;20041;-78
2023/08/22 00:09:38;;;;;;;20.50;14.02;;;;;;;14.16;100.00;101804.00;10487993;28;20049;-78
2023/08/22 00:14:39;;;;;;;19.73;13.57;;;;;;;14.16;100.00;101792.56;10468222;28;20400;-78
2023/08/22 00:19:39;;;;;;;18.58;15.18;;;;;;;14.15;100.00;101778.50;10486507;28;20097;-78
2023/08/22 00:24:40;;;;;;;20.33;17.13;;;;;;;14.07;100.00;101778.13;10468505;28;20502;-78
2023/08/22 00:29:41;;;;;;;21.52;15.18;;;;;;;13.99;100.00;101782.13;10485714;28;20056;-78
2023/08/22 00:34:41;;;;;;;23.67;14.32;;;;;;;13.92;100.00;101774.75;10483655;28;20119;-78
2023/08/22 00:39:42;;;;;;;21.02;14.00;;;;;;;13.88;100.00;101776.34;10484056;28;20119;-78
2023/08/22 00:44:42;;;;;;;21.23;13.45;;;;;;;13.81;100.00;101763.72;10485608;28;20125;-78
2023/08/22 00:49:43;;;;;;;23.20;17.42;;;;;;;13.78;100.00;101771.47;10483755;28;20128;-77
2023/08/22 00:54:43;;;;;;;17.67;15.77;;;;;;;13.73;100.00;101773.84;10466859;28;20032;-78
2023/08/22 00:59:44;;;;;;;25.63;20.63;;;;;;;13.70;100.00;101772.81;10484365;28;20464;-78
2023/08/22 01:04:44;;;;;;;28.65;19.58;;;;;;;13.75;100.00;101764.31;10466658;28;20456;-77
2023/08/22 01:09:51;;;;;;;25.95;22.35;;;;;;;13.73;100.00;101759.81;10449809;28;20132;-77
2023/08/22 01:15:24;;;;;;;24.42;18.23;;;;;;;13.65;100.00;101759.44;10465746;28;20089;-78
2023/08/22 01:20:25;;;;;;;24.92;21.58;;;;;;;13.73;100.00;101758.06;10484307;28;20093;-78
2023/08/22 01:25:29;;;;;;;28.00;16.88;;;;;;;13.72;100.00;101747.50;10480991;28;20595;-76
2023/08/22 01:30:41;;;;;;;20.83;14.70;;;;;;;13.69;100.00;101748.22;10466679;28;20488;-76
2023/08/22 01:35:43;;;;;;;23.07;15.57;;;;;;;13.65;100.00;101751.53;10449804;28;20093;-76
2023/08/22 01:40:43;;;;;;;18.95;16.45;;;;;;;13.59;100.00;101754.78;10482911;28;20051;-76
2023/08/22 01:45:44;;;;;;;19.88;16.80;;;;;;;13.54;100.00;101764.16;10465758;28;20063;-76
2023/08/22 01:50:44;;;;;;;23.95;18.27;;;;;;;13.51;100.00;101746.50;10482325;28;20037;-76
2023/08/22 01:55:45;;;;;;;22.52;16.35;;;;;;;13.46;100.00;101745.38;10484715;28;20037;-75
2023/08/22 02:00:45;;;;;;;20.02;16.15;;;;;;;13.38;100.00;101743.16;10482433;28;20485;-75
2023/08/22 02:05:46;;;;;;;28.35;18.83;;;;;;;13.36;100.00;101745.69;10483744;28;20124;-76
2023/08/22 02:10:47;;;;;;;26.83;20.00;;;;;;;13.39;100.00;101732.69;10465121;28;20044;-76
2023/08/22 02:15:47;;;;;;;23.17;17.90;;;;;;;13.40;100.00;101731.88;10483765;28;20084;-76
2023/08/22 02:20:51;;;;;;;31.42;20.40;;;;;;;13.34;100.00;101744.72;10490730;28;20115;-76
2023/08/22 02:25:51;;;;;;;28.75;21.33;;;;;;;13.26;100.00;101752.22;10486845;28;20094;-76
2023/08/22 02:30:55;;;;;;;31.08;24.45;;;;;;;13.21;100.00;101748.47;10489627;28;20040;-76
2023/08/22 02:35:56;;;;;;;29.20;26.02;;;;;;;13.13;100.00;101739.28;10488975;28;20036;-76
2023/08/22 02:40:56;;;;;;;43.20;26.80;;;;;;;13.07;100.00;101742.50;10490491;28;20778;-76
2023/08/22 02:45:57;;;;;;;30.45;24.15;;;;;;;13.01;100.00;101740.47;10488796;28;20120;-75
2023/08/22 02:50:58;;;;;;;32.95;26.88;;;;;;;12.99;100.00;101734.22;10490655;28;20033;-75
2023/08/22 02:56:00;;;;;;;30.45;26.25;;;;;;;12.97;100.00;101727.06;10488230;28;20044;-75
2023/08/22 03:01:00;;;;;;;28.75;22.25;;;;;;;13.06;100.00;101724.91;10488357;28;20036;-76
2023/08/22 03:06:01;;;;;;;30.45;21.55;;;;;;;13.03;100.00;101715.16;10488216;28;20047;-75
2023/08/22 03:11:01;;;;;;;25.30;19.90;;;;;;;13.01;100.00;101716.81;10489795;28;20036;-76
2023/08/22 03:16:02;;;;;;;28.48;22.17;;;;;;;12.97;100.00;101719.19;10470259;28;20059;-76
2023/08/22 03:21:02;;;;;;;24.92;19.70;;;;;;;12.89;100.00;101722.31;10488900;28;20507;-76
2023/08/22 03:26:03;;;;;;;25.83;18.30;;;;;;;12.83;100.00;101719.38;10487042;28;20040;-76
2023/08/22 03:31:04;;;;;;;26.58;17.35;;;;;;;12.74;100.00;101713.66;10488236;28;20040;-76
2023/08/22 03:36:05;;;;;;;25.58;19.27;;;;;;;12.66;100.00;101700.13;10486642;28;20056;-76
2023/08/22 03:41:05;;;;;;;23.30;18.85;;;;;;;12.56;100.00;101697.84;10487496;28;20040;-76
2023/08/22 03:46:06;;;;;;;21.30;17.48;;;;;;;12.52;100.00;101691.50;10486352;28;20040;-76
2023/08/22 03:51:07;;;;;;;25.70;19.00;;;;;;;12.46;100.00;101692.09;10487882;28;20504;-76
2023/08/22 03:56:07;;;;;;;27.67;16.90;;;;;;;12.47;100.00;101695.59;10469201;28;20119;-76
2023/08/22 04:01:08;;;;;;;24.30;16.65;;;;;;;12.42;100.00;101699.72;10488166;28;20089;-75
2023/08/22 04:06:08;;;;;;;24.13;17.55;;;;;;;12.38;100.00;101705.63;10484920;28;20127;-76
2023/08/22 04:11:09;;;;;;;25.08;19.75;;;;;;;12.41;100.00;101705.78;10486774;28;20170;-76
2023/08/22 04:16:09;;;;;;;26.52;18.98;;;;;;;12.44;100.00;101705.94;10483724;28;20044;-76
2023/08/22 04:21:10;;;;;;;24.88;18.75;;;;;;;12.40;100.00;101698.72;10484806;28;20028;-76
2023/08/22 04:26:10;;;;;;;26.48;20.98;;;;;;;12.31;100.00;101705.28;10484057;28;20043;-76
2023/08/22 04:31:11;;;;;;;27.90;22.13;;;;;;;12.24;100.00;101718.00;10486192;28;20035;-76
2023/08/22 04:36:11;;;;;;;26.58;18.33;;;;;;;12.28;100.00;101709.50;10482829;28;20399;-77
2023/08/22 04:41:12;;;;;;;30.42;23.02;;;;;;;12.27;100.00;101708.56;10484730;28;20544;-76
2023/08/22 04:46:12;;;;;;;29.23;21.05;;;;;;;12.31;100.00;101699.16;10483427;28;20044;-76
2023/08/22 04:51:13;;;;;;;27.10;21.83;;;;;;;12.37;100.00;101693.31;10484397;28;20395;-76
2023/08/22 04:56:14;;;;;;;28.10;22.30;;;;;;;12.34;100.00;101694.06;10483849;28;20131;-76
2023/08/22 05:01:14;;;;;;;30.02;23.27;;;;;;;12.33;100.00;101693.16;10446183;28;20540;-75
2023/08/22 05:06:15;;;;;;;28.40;22.65;;;;;;;12.40;100.00;101707.53;10463908;28;20127;-74
2023/08/22 05:11:15;;;;;;;23.00;17.65;;;;;;;12.55;100.00;101703.91;10482655;28;20051;-74
2023/08/22 05:16:16;;;;;;;26.10;18.80;;;;;;;12.56;100.00;101703.97;10483215;28;20029;-75
2023/08/22 05:21:17;;;;;;;25.27;18.60;;;;;;;12.63;100.00;101711.34;10463300;28;20120;-75
2023/08/22 05:26:17;;;;;;;24.83;17.48;;;;;;;12.68;100.00;101708.06;10441377;28;20063;-74
2023/08/22 05:31:22;;;;;;;20.40;16.10;;;;;;;12.69;100.00;101709.88;10464079;28;20043;-74
2023/08/22 05:36:22;;;;;;;27.65;18.77;;;;;;;12.70;100.00;101706.41;10482406;28;20111;-74
2023/08/22 05:41:23;;;;;;;22.67;17.80;;;;;;;12.76;100.00;101705.03;10482871;28;20199;-74
2023/08/22 05:46:23;;;;;;;20.67;18.23;;;;;;;12.90;100.00;101713.63;10482385;28;20044;-74
2023/08/22 05:51:24;;;;;;;20.98;16.80;;;;;;;13.06;100.00;101717.03;10482240;28;20399;-75
2023/08/22 05:56:24;;;;;;;27.88;19.98;;;;;;;13.34;100.00;101715.78;10489878;28;20123;-76
2023/08/22 06:01:25;;;;;;;25.75;18.95;;;;;;;14.19;100.00;101717.28;10492070;28;20035;-75
2023/08/22 06:06:26;;;;;;;20.27;11.82;;;;;;;15.65;100.00;101713.00;10490026;28;20131;-76
2023/08/22 06:11:26;;;;;;;14.73;9.75;;;;;;;17.28;100.00;101712.84;10473229;28;20048;-75
2023/08/22 06:16:27;;;;;;;9.93;6.93;;;;;;;18.52;100.00;101690.16;10492551;28;20052;-76
2023/08/22 06:21:27;;;;;;;10.10;7.30;;;;;;;19.60;100.00;101620.34;10491201;28;20025;-76
2023/08/22 06:26:28;;;;;;;8.60;5.27;;;;;;;20.47;100.00;101642.53;10456238;28;20111;-75
2023/08/22 06:31:29;;;;;;;6.03;4.73;;;;;;;20.91;100.00;101654.88;10488986;28;20119;-76
2023/08/22 06:36:30;;;;;;;10.30;5.45;;;;;;;21.00;100.00;101663.00;10490194;28;20033;-76
2023/08/22 06:41:30;;;;;;;9.03;6.43;;;;;;;21.36;100.00;101653.84;10488914;28;20028;-76
2023/08/22 06:46:31;;;;;;;10.43;7.97;;;;;;;21.10;100.00;101664.09;10489523;28;20032;-76
2023/08/22 06:51:32;;;;;;;9.27;7.63;;;;;;;21.30;100.00;101652.88;10472715;28;20429;-76
2023/08/22 06:56:32;;;;;;;10.97;8.33;;;;;;;21.39;100.00;101647.69;10487973;28;20052;-77
2023/08/22 07:01:33;;;;;;;13.83;9.57;;;;;;;21.67;100.00;101656.13;10489864;28;20120;-77
2023/08/22 07:06:33;;;;;;;11.90;10.67;;;;;;;23.18;100.00;101686.25;10489106;28;20472;-77
2023/08/22 07:11:34;;;;;;;17.13;13.40;;;;;;;24.09;100.00;101725.22;10488370;28;20032;-76
2023/08/22 07:16:34;;;;;;;20.97;12.30;;;;;;;24.57;100.00;101741.47;10487361;28;20050;-76
2023/08/22 07:21:35;;;;;;;23.47;11.87;;;;;;;24.61;100.00;101734.34;10489507;28;20040;-77
2023/08/22 07:26:35;;;;;;;23.27;12.53;;;;;;;24.91;100.00;101754.97;10489484;28;20037;-77
2023/08/22 07:31:36;;;;;;;14.30;11.50;;;;;;;25.18;100.00;101761.25;10488416;28;20488;-76
2023/08/22 07:36:37;;;;;;;18.83;12.77;;;;;;;24.35;100.00;101753.88;10488295;28;20127;-76
2023/08/22 07:41:37;;;;;;;14.67;12.70;;;;;;;24.17;100.00;101747.56;10469614;28;20036;-76
2023/08/22 07:46:38;;;;;;;17.67;13.93;;;;;;;24.21;100.00;101747.56;10488962;28;20035;-76
2023/08/22 07:51:38;;;;;;;17.80;11.50;;;;;;;24.25;100.00;101738.69;10485684;28;20469;-77
2023/08/22 07:56:39;;;;;;;18.67;14.03;;;;;;;24.45;100.00;101752.13;10487873;28;20044;-77
2023/08/22 08:01:41;;;;;;;14.30;10.67;;;;;;;24.57;100.00;101765.53;10486444;28;20068;-76
2023/08/22 08:06:41;;;;;;;20.60;13.73;;;;;;;24.42;100.00;101763.72;10452991;28;20043;-76
2023/08/22 08:11:42;;;;;;;18.23;11.53;;;;;;;24.42;100.00;101768.16;10468090;28;20055;-76
2023/08/22 08:16:42;;;;;;;20.40;12.90;;;;;;;24.11;100.00;101771.59;10483799;28;20123;-76
2023/08/22 08:21:43;;;;;;;17.63;13.17;;;;;;;23.84;100.00;101785.63;10485515;28;20029;-77
2023/08/22 08:26:44;;;;;;;21.27;12.07;;;;;;;23.02;100.00;101775.09;10485918;28;20110;-76
2023/08/22 08:31:45;;;;;;;25.20;13.05;;;;;;;22.71;100.00;101772.09;10466474;28;20447;-76
2023/08/22 08:36:45;;;;;;;14.73;10.30;;;;;;;22.82;100.00;101772.22;10445650;28;20090;-76
2023/08/22 08:41:54;;;;;;;24.17;11.90;;;;;;;22.84;100.00;101776.69;10442204;28;20079;-76
2023/08/22 08:46:55;;;;;;;16.13;11.07;;;;;;;23.36;100.00;101779.91;10426855;28;20110;-76
2023/08/22 08:51:55;;;;;;;14.97;11.27;;;;;;;23.45;100.00;101780.88;10442175;28;20108;-76
2023/08/22 08:56:56;;;;;;;19.27;12.23;;;;;;;26.20;100.00;101827.38;10426574;28;20418;-76
2023/08/22 09:01:56;;;;;;;13.07;10.23;;;;;;;27.30;100.00;101860.94;10442233;28;20044;-76
2023/08/22 09:07:16;;;;;;;14.50;8.10;;;;;;;26.16;100.00;101852.41;10442319;28;20044;-77
2023/08/22 09:12:35;;;;;;;10.50;7.13;;;;;;;24.64;100.00;101838.72;10401320;28;20045;-77
2023/08/22 09:17:55;;;;;;;13.52;6.90;;;;;;;24.02;100.00;101827.69;10456843;28;20041;-76
2023/08/22 09:23:32;;;;;;;15.80;7.20;;;;;;;24.59;100.00;101824.44;10428539;28;20029;-76
2023/08/22 09:28:38;;;;;;;8.32;5.85;;;;;;;25.59;100.00;101834.56;10423534;28;20094;-76
2023/08/22 09:33:45;;;;;;;11.60;5.80;;;;;;;27.34;100.00;101830.44;10440315;28;20041;-76
2023/08/22 09:39:04;;;;;;;13.80;6.18;;;;;;;28.33;100.00;101839.44;10475178;28;20071;-76
2023/08/22 09:44:05;;;;;;;10.77;5.90;;;;;;;27.11;100.00;101847.59;10442284;28;20033;-76
2023/08/22 09:49:06;;;;;;;12.37;5.33;;;;;;;25.68;100.00;101844.38;10440642;28;20029;-76
2023/08/22 09:54:07;;;;;;;10.82;5.30;;;;;;;25.14;100.00;101834.44;10441419;28;20040;-76
2023/08/22 09:59:08;;;;;;;16.07;5.03;;;;;;;24.98;100.00;101830.84;10442712;28;20120;-76
2023/08/22 10:04:09;;;;;;;8.67;5.77;;;;;;;25.75;100.00;101831.88;10442007;28;20052;-76
2023/08/22 10:09:11;;;;;;;10.50;6.38;;;;;;;27.17;100.00;101841.28;10474021;28;20055;-76
2023/08/22 10:14:42;;;;;;;8.98;5.68;;;;;;;27.49;100.00;101845.56;10441064;28;20057;-77
2023/08/22 10:19:42;;;;;;;11.83;6.83;;;;;;;27.19;100.00;101855.59;10424964;28;20445;-77
2023/08/22 10:24:46;;;;;;;10.07;5.47;;;;;;;26.26;100.00;101842.53;10439718;28;20029;-77
2023/08/22 10:30:07;;;;;;;15.65;6.15;;;;;;;26.65;100.00;101834.38;10457368;28;20276;-77
2023/08/22 10:35:12;;;;;;;6.83;4.37;;;;;;;29.59;100.00;101851.25;10440867;28;20048;-77
2023/08/22 10:40:26;;;;;;;10.05;4.55;;;;;;;30.51;100.00;101849.59;10445776;28;20752;-76
2023/08/22 10:45:26;;;;;;;9.55;4.10;;;;;;;30.27;100.00;101851.88;10447250;28;20496;-77
2023/08/22 10:50:27;;;;;;;7.07;5.13;;;;;;;30.57;100.00;101839.56;10464037;28;20079;-76
2023/08/22 10:55:27;;;;;;;9.55;5.43;;;;;;;31.23;100.00;101844.47;10463346;28;20043;-76
2023/08/22 11:00:28;;;;;;;10.55;4.57;;;;;;;30.08;100.00;101846.81;10473932;28;20037;-76
2023/08/22 11:05:29;;;;;;;9.48;5.10;;;;;;;29.86;100.00;101849.00;10466309;28;20748;-76
2023/08/22 11:10:30;;;;;;;10.75;3.63;;;;;;;29.65;100.00;101850.25;10463386;28;20025;-76
2023/08/22 11:15:31;;;;;;;9.68;4.75;;;;;;;28.50;100.00;101835.66;10462731;28;20029;-77
2023/08/22 11:20:31;;;;;;;16.67;5.93;;;;;;;28.30;100.00;101836.78;10488342;28;20040;-75
2023/08/22 11:25:32;;;;;;;36.00;27.30;;;;;;;27.90;100.00;101843.47;10470559;28;20055;-77
2023/08/22 11:30:32;;;;;;;7.37;4.53;;;;;;;30.56;100.00;101843.19;10487524;28;20077;-75
2023/08/22 11:35:33;;;;;;;6.23;3.70;;;;;;;31.72;100.00;101836.94;10486166;28;20094;-76
2023/08/22 11:40:33;;;;;;;5.50;3.13;;;;;;;31.37;84.93;101840.53;10469586;28;20098;-76
2023/08/22 11:45:34;;;;;;;8.82;2.63;;;;;;;29.48;100.00;101837.94;10486569;28;20047;-76
2023/08/22 11:50:35;;;;;;;10.83;4.57;;;;;;;30.50;100.00;101847.81;10468022;28;20557;-75
2023/08/22 11:55:37;;;;;;;6.50;3.47;;;;;;;31.38;98.72;101840.50;10455512;28;20049;-78
2023/08/22 12:00:38;;;;;;;12.48;5.70;;;;;;;29.86;93.65;101843.59;10485882;28;20036;-77
2023/08/22 12:05:39;;;;;;;8.43;2.83;;;;;;;27.95;100.00;101852.38;10485340;28;20055;-76
2023/08/22 12:10:51;;;;;;;8.98;2.33;;;;;;;28.16;100.00;101839.66;10468355;28;20029;-76
2023/08/22 12:15:51;;;;;;;;;;;;;;;29.02;100.00;101848.47;10485375;28;20416;-76
2023/08/22 12:20:52;;;;;;;8.13;3.90;;;;;;;29.98;100.00;101843.38;10485681;28;19928;-77
2023/08/22 12:25:52;;;;;;;6.40;3.53;;;;;;;28.84;100.00;101843.34;10486560;28;20464;-76
2023/08/22 12:30:53;;;;;;;9.07;4.80;;;;;;;27.92;100.00;101841.66;10476193;28;20041;-76
2023/08/22 12:35:53;;;;;;;8.43;3.60;;;;;;;27.19;100.00;101835.91;10443592;28;20041;-77
2023/08/22 12:40:55;;;;;;;11.03;3.10;;;;;;;26.57;100.00;101852.31;10458773;28;20029;-77
2023/08/22 12:45:56;;;;;;;8.25;3.58;;;;;;;26.01;100.00;101839.88;10476282;28;20063;-76
2023/08/22 12:50:56;;;;;;;;;;;;;;;25.53;100.00;101834.56;10475826;28;20041;-77
2023/08/22 12:55:57;;;;;;;9.73;4.10;;;;;;;25.01;100.00;101822.81;10444644;28;19938;-77
2023/08/22 13:00:57;;;;;;;11.57;4.00;;;;;;;24.83;100.00;101820.97;10475186;28;20500;-77
2023/08/22 13:05:59;;;;;;;11.13;6.60;;;;;;;24.56;100.00;101825.28;10475374;28;20067;-76
2023/08/22 13:10:59;;;;;;;6.65;3.58;;;;;;;24.74;100.00;101815.59;10443953;28;20389;-75
2023/08/22 13:16:00;;;;;;;19.57;3.47;;;;;;;25.13;100.00;101819.28;10485540;28;20032;-76
2023/08/22 13:21:01;;;;;;;9.97;3.20;;;;;;;25.36;100.00;101827.34;10478492;28;20097;-77
2023/08/22 13:26:01;;;;;;;9.77;3.57;;;;;;;25.47;100.00;101835.41;10516999;28;20143;-76
2023/08/22 13:31:02;;;;;;;6.53;2.30;;;;;;;25.58;100.00;101831.84;10464346;28;20060;-76
2023/08/22 13:36:02;;;;;;;5.03;2.37;;;;;;;25.98;100.00;101836.31;10442352;28;20123;-76
2023/08/22 13:41:03;;;;;;;3.03;1.70;;;;;;;26.24;100.00;101823.78;10490500;28;20044;-77
2023/08/22 13:46:05;;;;;;;7.07;1.70;;;;;;;26.14;100.00;101821.06;10515638;28;20037;-77
2023/08/22 13:51:05;;;;;;;13.68;2.65;;;;;;;26.10;100.00;101825.56;10462247;28;20045;-78
2023/08/22 13:56:07;;;;;;;6.53;1.77;;;;;;;28.05;100.00;101818.19;10442017;28;20495;-78
2023/08/22 14:01:08;;;;;;;8.05;2.25;;;;;;;28.79;100.00;101826.34;10508825;28;20036;-78
2023/08/22 14:06:08;;;;;;;4.63;1.77;;;;;;;27.62;100.00;101822.19;10483866;28;20036;-78
2023/08/22 14:11:09;;;;;;;7.40;1.93;;;;;;;26.55;100.00;101819.22;10481163;28;20048;-78
2023/08/22 14:16:09;;;;;;;7.63;1.83;;;;;;;26.54;100.00;101815.63;10487633;28;20124;-78
2023/08/22 14:21:10;;;;;;;3.87;1.63;;;;;;;26.57;100.00;101823.66;10490570;28;20033;-78
2023/08/22 14:26:10;;;;;;;8.83;1.90;;;;;;;26.79;100.00;101831.63;10488425;28;20068;-78
2023/08/22 14:31:11;;;;;;;3.87;1.80;;;;;;;26.01;100.00;101837.19;10472138;28;20036;-78
2023/08/22 14:36:12;;;;;;;7.33;2.30;;;;;;;26.57;100.00;101825.47;10488322;28;20395;-77
2023/08/22 14:41:12;;;;;;;2.93;1.20;;;;;;;29.40;100.00;101824.59;10522938;28;20146;-78
2023/08/22 14:46:13;;;;;;;4.23;1.73;;;;;;;28.51;100.00;101832.97;10486883;28;20302;-77
2023/08/22 14:51:13;;;;;;;4.80;1.87;;;;;;;27.63;100.00;101813.22;10470963;28;20040;-77
2023/08/22 14:56:14;;;;;;;5.60;2.60;;;;;;;27.44;100.00;101809.75;10487961;28;20045;-77
2023/08/22 15:01:17;;;;;;;4.27;2.03;;;;;;;28.31;100.00;101805.41;10481858;28;20131;-77
2023/08/22 15:06:17;;;;;;;3.58;2.28;;;;;;;29.07;100.00;101799.91;10478791;28;20033;-78
2023/08/22 15:11:18;;;;;;;8.20;2.37;;;;;;;29.16;100.00;101797.09;10509067;28;20480;-77
2023/08/22 15:16:19;;;;;;;5.33;2.17;;;;;;;28.74;100.00;101799.47;10487831;28;20078;-78
2023/08/22 15:21:19;;;;;;;4.10;1.57;;;;;;;28.18;100.00;101792.09;10512726;28;20492;-77
2023/08/22 15:26:20;;;;;;;7.00;2.90;;;;;;;28.36;100.00;101796.34;10484108;28;20504;-77
2023/08/22 15:31:21;;;;;;;5.60;2.10;;;;;;;28.06;100.00;101784.13;10518951;28;20491;-77
2023/08/22 15:36:21;;;;;;;24.37;12.87;;;;;;;27.69;100.00;101788.97;10489970;28;20040;-78
2023/08/22 15:41:22;;;;;;;6.00;1.60;;;;;;;26.50;100.00;101779.88;10481633;28;20123;-79
2023/08/22 15:46:22;;;;;;;4.13;1.27;;;;;;;26.05;100.00;101789.81;10478148;28;20515;-77
2023/08/22 15:51:23;;;;;;;5.17;1.23;;;;;;;26.17;100.00;101788.91;10470169;28;20433;-79
2023/08/22 15:56:23;;;;;;;2.77;0.83;;;;;;;25.87;100.00;101791.66;10446903;28;20068;-78
2023/08/22 16:01:24;;;;;;;83.40;75.13;;;;;;;25.24;100.00;101789.84;10480299;28;20146;-76
2023/08/22 16:06:24;;;;;;;6.27;3.43;;;;;;;24.79;100.00;101781.69;10449150;28;20045;-77
2023/08/22 16:11:25;;;;;;;26.90;20.97;;;;;;;24.76;100.00;101779.00;10477404;28;20073;-77
2023/08/22 16:16:26;;;;;;;6.73;4.50;;;;;;;24.71;100.00;101778.06;10411509;28;20128;-77
2023/08/22 16:21:26;;;;;;;5.90;2.00;;;;;;;24.30;100.00;101777.03;10415649;28;20041;-77
2023/08/22 16:26:28;;;;;;;3.27;1.30;;;;;;;23.80;100.00;101770.44;10423578;28;20151;-76
2023/08/22 16:31:30;;;;;;;3.22;1.10;;;;;;;23.38;100.00;101770.13;10441714;28;20092;-78
2023/08/22 16:36:30;;;;;;;8.73;1.67;;;;;;;23.24;100.00;101775.34;10416164;28;20075;-77
2023/08/22 16:41:32;;;;;;;1.23;0.70;;;;;;;22.98;100.00;101773.28;10434052;28;20141;-76
2023/08/22 16:46:33;;;;;;;7.53;1.65;;;;;;;22.84;100.00;101755.34;10440970;28;20044;-78
2023/08/22 16:51:34;;;;;;;;;;;;;;;22.70;100.00;101765.88;10429326;28;20033;-78
2023/08/22 16:56:34;;;;;;;7.78;4.22;;;;;;;22.55;100.00;101771.91;10494576;28;19943;-79
2023/08/22 17:01:35;;;;;;;3.43;1.50;;;;;;;22.42;100.00;101770.84;10476389;28;20041;-76
2023/08/22 17:06:35;;;;;;;11.90;5.43;;;;;;;22.28;100.00;101764.44;10480907;28;20036;-77
2023/08/22 17:11:36;;;;;;;4.53;1.73;;;;;;;22.08;100.00;101766.81;10474202;28;20129;-77
2023/08/22 17:16:36;;;;;;;4.33;1.73;;;;;;;21.83;100.00;101755.78;10455147;28;20135;-78
2023/08/22 17:21:37;;;;;;;9.77;6.73;;;;;;;21.56;100.00;101751.78;10463065;28;20563;-77
2023/08/22 17:26:37;;;;;;;11.93;7.90;;;;;;;21.25;100.00;101745.94;10463694;28;20044;-77
2023/08/22 17:31:38;;;;;;;5.03;1.87;;;;;;;20.91;100.00;101742.69;10473413;28;20115;-77
2023/08/22 17:36:38;;;;;;;3.67;1.23;;;;;;;20.67;100.00;101730.66;10448528;28;20047;-77
2023/08/22 17:41:39;;;;;;;5.37;2.30;;;;;;;20.39;100.00;101725.69;10462618;28;20033;-77
2023/08/22 17:46:39;;;;;;;16.13;12.17;;;;;;;20.07;100.00;101706.41;10463165;28;20384;-77
2023/08/22 17:51:40;;;;;;;8.27;5.07;;;;;;;19.70;100.00;101701.13;10454025;28;20029;-78
2023/08/22 17:56:42;;;;;;;5.15;1.40;;;;;;;19.39;100.00;101697.75;10472732;28;20126;-77
2023/08/22 18:01:42;;;;;;;30.45;27.20;;;;;;;19.13;100.00;101695.34;10474178;28;20497;-78
2023/08/22 18:06:43;;;;;;;9.37;3.03;;;;;;;18.94;100.00;101688.63;10532555;28;20122;-77
2023/08/22 18:11:43;;;;;;;6.10;2.53;;;;;;;18.60;100.00;101696.56;10514247;28;20467;-77
2023/08/22 18:16:44;;;;;;;7.15;4.65;;;;;;;18.35;100.00;101697.63;10490578;28;20036;-77
2023/08/22 18:21:44;;;;;;;5.40;1.75;;;;;;;18.14;100.00;101700.56;10519959;28;20043;-77
2023/08/22 18:26:45;;;;;;;3.45;2.03;;;;;;;17.88;100.00;101703.28;10489656;28;20040;-77
2023/08/22 18:31:46;;;;;;;3.85;1.40;;;;;;;17.52;100.00;101710.09;10491003;28;20085;-77
2023/08/22 18:36:46;;;;;;;5.18;2.20;;;;;;;17.27;100.00;101721.63;10490692;28;20044;-77
2023/08/22 18:41:47;;;;;;;64.07;22.50;;;;;;;17.08;100.00;101731.56;10488130;28;20127;-78
2023/08/22 18:46:47;;;;;;;7.68;2.35;;;;;;;16.93;100.00;101733.66;10488381;28;20055;-78
2023/08/22 18:51:48;;;;;;;6.10;1.67;;;;;;;16.77;100.00;101743.69;10451724;28;20131;-78
2023/08/22 18:56:48;;;;;;;13.45;2.42;;;;;;;16.64;100.00;101747.59;10488365;28;20044;-77
2023/08/22 19:01:49;;;;;;;8.90;2.42;;;;;;;16.53;100.00;101756.88;10488103;28;20037;-77
2023/08/22 19:06:49;;;;;;;4.97;2.13;;;;;;;16.36;100.00;101762.41;10470520;28;20039;-77
2023/08/22 19:11:50;;;;;;;5.75;2.00;;;;;;;16.22;100.00;101755.72;10487169;28;20082;-77
2023/08/22 19:16:50;;;;;;;5.78;1.88;;;;;;;16.06;100.00;101759.50;10489644;28;20054;-77
2023/08/22 19:21:51;;;;;;;5.68;1.98;;;;;;;15.92;100.00;101767.78;10486538;28;20532;-77
2023/08/22 19:26:52;;;;;;;6.28;2.90;;;;;;;15.77;100.00;101780.31;10488291;28;20043;-77
2023/08/22 19:31:56;;;;;;;5.68;1.83;;;;;;;15.70;100.00;101776.50;10470516;28;20885;-77
2023/08/22 19:36:57;;;;;;;3.75;2.13;;;;;;;15.52;100.00;101782.81;10489051;28;20040;-77
2023/08/22 19:41:58;;;;;;;4.65;1.75;;;;;;;15.43;100.00;101778.91;10485845;28;20037;-77
2023/08/22 19:47:01;;;;;;;12.00;2.70;;;;;;;15.40;100.00;101784.94;10487937;28;20446;-77
2023/08/22 19:52:01;;;;;;;10.15;2.28;;;;;;;15.25;100.00;101779.94;10485878;28;20468;-77
2023/08/22 19:57:02;;;;;;;9.05;2.17;;;;;;;15.19;100.00;101779.66;10487930;28;20036;-77
2023/08/22 20:02:03;;;;;;;9.80;3.25;;;;;;;15.06;100.00;101780.84;10485677;28;20107;-77
2023/08/22 20:07:04;;;;;;;10.53;2.43;;;;;;;14.90;100.00;101771.38;10485112;28;20037;-78
2023/08/22 20:12:05;;;;;;;5.10;2.40;;;;;;;14.82;100.00;101774.59;10484939;28;20086;-77
2023/08/22 20:17:05;;;;;;;3.78;2.10;;;;;;;14.61;100.00;101773.59;10485294;28;20041;-77
2023/08/22 20:22:06;;;;;;;5.72;2.10;;;;;;;14.49;100.00;101787.06;10484229;28;20111;-77
2023/08/22 20:27:06;;;;;;;5.30;3.22;;;;;;;14.56;100.00;101789.16;10487310;28;20040;-77
2023/08/22 20:32:07;;;;;;;4.65;1.90;;;;;;;14.39;100.00;101798.94;10483653;28;20036;-77
2023/08/22 20:37:07;;;;;;;8.18;3.95;;;;;;;14.26;100.00;101797.44;10485742;28;20045;-78
2023/08/22 20:42:08;;;;;;;9.80;3.58;;;;;;;14.16;100.00;101800.44;10483069;28;20112;-77
2023/08/22 20:47:08;;;;;;;13.48;4.65;;;;;;;14.01;100.00;101801.53;10481658;28;20041;-78
2023/08/22 20:52:09;;;;;;;5.35;4.35;;;;;;;14.04;100.00;101800.78;10442926;28;20048;-79
2023/08/22 20:57:09;;;;;;;8.18;5.75;;;;;;;14.03;100.00;101793.72;10481702;28;20168;-79
2023/08/22 21:02:13;;;;;;;6.95;3.70;;;;;;;13.97;100.00;101799.56;10483760;28;20512;-78
2023/08/22 21:07:14;;;;;;;11.27;5.25;;;;;;;13.92;100.00;101804.63;10465852;28;20536;-78
2023/08/22 21:12:14;;;;;;;9.43;4.00;;;;;;;13.88;100.00;101802.66;10485206;28;20036;-79
2023/08/22 21:17:15;;;;;;;7.10;3.08;;;;;;;13.76;100.00;101799.44;10482192;28;20042;-78
2023/08/22 21:22:15;;;;;;;6.10;3.80;;;;;;;13.70;100.00;101801.75;10484165;28;20048;-79
2023/08/22 21:27:16;;;;;;;5.50;3.17;;;;;;;13.67;100.00;101801.59;10482468;28;20816;-79
2023/08/22 21:32:17;;;;;;;6.50;3.33;;;;;;;13.68;100.00;101804.28;10483683;28;20066;-78
2023/08/22 21:37:21;;;;;;;7.90;3.05;;;;;;;13.66;100.00;101808.56;10449452;28;20125;-79
2023/08/22 21:42:21;;;;;;;13.75;3.78;;;;;;;13.51;100.00;101808.72;10466173;28;20044;-78
2023/08/22 21:47:22;;;;;;;11.50;4.78;;;;;;;13.39;100.00;101814.22;10434100;28;20033;-78
2023/08/22 21:52:22;;;;;;;10.18;4.10;;;;;;;13.39;100.00;101813.31;10482204;28;20033;-78
2023/08/22 21:57:23;;;;;;;8.73;4.53;;;;;;;13.33;100.00;101808.63;10484106;28;20041;-78
2023/08/22 22:02:23;;;;;;;7.80;3.97;;;;;;;13.25;100.00;101803.00;10482774;28;20025;-78
2023/08/22 22:07:24;;;;;;;7.32;3.20;;;;;;;13.23;100.00;101802.03;10481000;28;20128;-77
2023/08/22 22:12:24;;;;;;;10.77;5.50;;;;;;;13.19;100.00;101816.72;10482765;28;20033;-78
2023/08/22 22:17:25;;;;;;;8.20;4.05;;;;;;;13.16;100.00;101807.78;10483063;28;20042;-77
2023/08/22 22:22:26;;;;;;;8.88;4.95;;;;;;;13.14;100.00;101815.56;10482706;28;20135;-78
2023/08/22 22:27:26;;;;;;;8.65;4.22;;;;;;;13.14;100.00;101812.94;10482599;28;20127;-78
2023/08/22 22:32:27;;;;;;;8.32;3.65;;;;;;;13.13;100.00;101815.50;10483827;28;20128;-78
2023/08/22 22:37:27;;;;;;;9.43;4.30;;;;;;;13.05;100.00;101815.09;10487448;28;20123;-78